sensor_id;sensor_type;location;lat;lon;timestamp;P1;durP1;ratioP1;P2;durP2;ratioP2
13319;SDS011;59599;47.608;12.190;2022-10-16T04:02:15;5.63;;;3.80;;
13319;SDS011;59599;47.608;12.190;2022-10-16T04:04:41;4.87;;;3.33;;
13319;SDS011;59599;47.608;12.190;2022-10-16T04:07:07;6.77;;;3.70;;
13319;SDS011;59599;47.608;12.190;2022-10-16T04:09:33;3.60;;;3.10;;
13319;SDS011;59599;47.608;12.190;2022-10-16T04:11:59;3.67;;;2.73;;
13319;SDS011;59599;47.608;12.190;2022-10-16T04:14:25;5.97;;;2.93;;
13319;SDS011;59599;47.608;12.190;2022-10-16T04:16:51;6.00;;;3.00;;
13319;SDS011;59599;47.608;12.190;2022-10-16T04:19:17;5.57;;;2.90;;
13319;SDS011;59599;47.608;12.190;2022-10-16T04:21:43;6.30;;;2.87;;
13319;SDS011;59599;47.608;12.190;2022-10-16T04:24:09;6.47;;;2.70;;
13319;SDS011;59599;47.608;12.190;2022-10-16T04:26:36;4.27;;;3.00;;
13319;SDS011;59599;47.608;12.190;2022-10-16T04:29:02;5.13;;;3.47;;
13319;SDS011;59599;47.608;12.190;2022-10-16T04:31:28;11.67;;;3.00;;
13319;SDS011;59599;47.608;12.190;2022-10-16T04:33:54;5.73;;;3.40;;
13319;SDS011;59599;47.608;12.190;2022-10-16T04:36:20;6.73;;;3.00;;
13319;SDS011;59599;47.608;12.190;2022-10-16T04:38:46;7.90;;;2.93;;
13319;SDS011;59599;47.608;12.190;2022-10-16T04:41:12;9.43;;;2.80;;
13319;SDS011;59599;47.608;12.190;2022-10-16T04:43:38;2.87;;;2.57;;
13319;SDS011;59599;47.608;12.190;2022-10-16T04:46:04;6.87;;;2.23;;
13319;SDS011;59599;47.608;12.190;2022-10-16T04:48:30;4.57;;;2.60;;
13319;SDS011;59599;47.608;12.190;2022-10-16T04:50:56;7.03;;;2.60;;
13319;SDS011;59599;47.608;12.190;2022-10-16T04:53:22;3.50;;;2.90;;
13319;SDS011;59599;47.608;12.190;2022-10-16T04:55:49;6.47;;;2.50;;
13319;SDS011;59599;47.608;12.190;2022-10-16T04:58:15;5.03;;;2.60;;
13319;SDS011;59599;47.608;12.190;2022-10-16T05:00:41;2.53;;;2.30;;
13319;SDS011;59599;47.608;12.190;2022-10-16T05:03:07;5.93;;;2.80;;
13319;SDS011;59599;47.608;12.190;2022-10-16T05:05:34;3.90;;;2.83;;
13319;SDS011;59599;47.608;12.190;2022-10-16T05:08:00;5.50;;;2.97;;
13319;SDS011;59599;47.608;12.190;2022-10-16T05:10:26;6.87;;;2.80;;
13319;SDS011;59599;47.608;12.190;2022-10-16T05:12:53;4.60;;;2.77;;
13319;SDS011;59599;47.608;12.190;2022-10-16T05:15:18;5.13;;;2.80;;
13319;SDS011;59599;47.608;12.190;2022-10-16T05:17:44;3.77;;;2.50;;
13319;SDS011;59599;47.608;12.190;2022-10-16T05:20:11;2.67;;;2.30;;
13319;SDS011;59599;47.608;12.190;2022-10-16T05:22:37;3.70;;;2.30;;
13319;SDS011;59599;47.608;12.190;2022-10-16T05:25:03;8.90;;;2.83;;
13319;SDS011;59599;47.608;12.190;2022-10-16T05:27:29;8.73;;;3.00;;
13319;SDS011;59599;47.608;12.190;2022-10-16T05:29:55;3.07;;;2.70;;
13319;SDS011;59599;47.608;12.190;2022-10-16T05:32:21;3.73;;;2.20;;
13319;SDS011;59599;47.608;12.190;2022-10-16T05:34:46;3.07;;;2.40;;
13319;SDS011;59599;47.608;12.190;2022-10-16T05:37:12;9.10;;;4.50;;
13319;SDS011;59599;47.608;12.190;2022-10-16T05:39:38;8.17;;;2.60;;
13319;SDS011;59599;47.608;12.190;2022-10-16T05:42:04;6.53;;;3.03;;
13319;SDS011;59599;47.608;12.190;2022-10-16T05:44:30;6.93;;;3.47;;
13319;SDS011;59599;47.608;12.190;2022-10-16T05:46:56;6.17;;;4.30;;
13319;SDS011;59599;47.608;12.190;2022-10-16T05:49:22;5.50;;;2.83;;
13319;SDS011;59599;47.608;12.190;2022-10-16T05:51:48;8.93;;;2.80;;
13319;SDS011;59599;47.608;12.190;2022-10-16T05:54:14;7.90;;;2.93;;
13319;SDS011;59599;47.608;12.190;2022-10-16T05:56:40;5.43;;;3.27;;
13319;SDS011;59599;47.608;12.190;2022-10-16T05:59:06;7.70;;;2.63;;
13319;SDS011;59599;47.608;12.190;2022-10-16T06:01:32;7.17;;;2.73;;
13319;SDS011;59599;47.608;12.190;2022-10-16T06:03:58;7.93;;;2.40;;
13319;SDS011;59599;47.608;12.190;2022-10-16T06:06:25;4.07;;;2.60;;
13319;SDS011;59599;47.608;12.190;2022-10-16T06:08:51;9.30;;;2.97;;
13319;SDS011;59599;47.608;12.190;2022-10-16T06:11:21;7.77;;;2.80;;
13319;SDS011;59599;47.608;12.190;2022-10-16T06:13:55;3.20;;;2.57;;
13319;SDS011;59599;47.608;12.190;2022-10-16T06:16:22;2.93;;;2.60;;
13319;SDS011;59599;47.608;12.190;2022-10-16T06:18:50;5.23;;;2.97;;
13319;SDS011;59599;47.608;12.190;2022-10-16T06:21:17;8.93;;;2.90;;
13319;SDS011;59599;47.608;12.190;2022-10-16T06:23:44;3.30;;;2.60;;
13319;SDS011;59599;47.608;12.190;2022-10-16T06:26:17;3.03;;;2.60;;
13319;SDS011;59599;47.608;12.190;2022-10-16T06:28:43;7.23;;;3.20;;
13319;SDS011;59599;47.608;12.190;2022-10-16T06:31:10;3.77;;;2.83;;
13319;SDS011;59599;47.608;12.190;2022-10-16T06:33:36;6.57;;;3.10;;
13319;SDS011;59599;47.608;12.190;2022-10-16T06:36:03;4.30;;;2.90;;
13319;SDS011;59599;47.608;12.190;2022-10-16T06:38:30;7.30;;;3.37;;
13319;SDS011;59599;47.608;12.190;2022-10-16T06:40:56;6.97;;;2.70;;
13319;SDS011;59599;47.608;12.190;2022-10-16T06:43:22;4.23;;;3.20;;
13319;SDS011;59599;47.608;12.190;2022-10-16T06:45:55;4.90;;;3.07;;
13319;SDS011;59599;47.608;12.190;2022-10-16T06:48:22;6.73;;;2.80;;
13319;SDS011;59599;47.608;12.190;2022-10-16T06:50:55;6.17;;;3.47;;
13319;SDS011;59599;47.608;12.190;2022-10-16T06:53:25;6.07;;;3.00;;
13319;SDS011;59599;47.608;12.190;2022-10-16T06:55:51;4.03;;;3.20;;
13319;SDS011;59599;47.608;12.190;2022-10-16T06:58:17;6.43;;;3.13;;
13319;SDS011;59599;47.608;12.190;2022-10-16T07:00:43;4.87;;;3.10;;
13319;SDS011;59599;47.608;12.190;2022-10-16T07:03:09;3.93;;;3.20;;
13319;SDS011;59599;47.608;12.190;2022-10-16T07:05:38;3.40;;;3.10;;
13319;SDS011;59599;47.608;12.190;2022-10-16T07:08:04;3.33;;;2.87;;
13319;SDS011;59599;47.608;12.190;2022-10-16T07:10:31;3.00;;;2.73;;
13319;SDS011;59599;47.608;12.190;2022-10-16T07:12:57;8.67;;;3.20;;
13319;SDS011;59599;47.608;12.190;2022-10-16T07:15:24;4.20;;;3.00;;
13319;SDS011;59599;47.608;12.190;2022-10-16T07:17:50;5.40;;;2.87;;
13319;SDS011;59599;47.608;12.190;2022-10-16T07:20:16;5.37;;;2.87;;
13319;SDS011;59599;47.608;12.190;2022-10-16T07:22:42;5.10;;;2.70;;
13319;SDS011;59599;47.608;12.190;2022-10-16T07:25:08;3.83;;;3.00;;
13319;SDS011;59599;47.608;12.190;2022-10-16T07:27:34;3.30;;;2.97;;
13319;SDS011;59599;47.608;12.190;2022-10-16T07:30:00;5.90;;;2.77;;
13319;SDS011;59599;47.608;12.190;2022-10-16T07:32:26;4.63;;;2.50;;
13319;SDS011;59599;47.608;12.190;2022-10-16T07:34:52;4.40;;;2.67;;
13319;SDS011;59599;47.608;12.190;2022-10-16T07:37:20;2.73;;;2.43;;
13319;SDS011;59599;47.608;12.190;2022-10-16T07:39:46;4.37;;;2.50;;
13319;SDS011;59599;47.608;12.190;2022-10-16T07:42:12;2.63;;;2.40;;
13319;SDS011;59599;47.608;12.190;2022-10-16T07:44:38;3.10;;;2.80;;
13319;SDS011;59599;47.608;12.190;2022-10-16T07:47:04;4.03;;;2.60;;
13319;SDS011;59599;47.608;12.190;2022-10-16T07:49:30;3.80;;;2.40;;
13319;SDS011;59599;47.608;12.190;2022-10-16T07:51:56;5.20;;;3.33;;
13319;SDS011;59599;47.608;12.190;2022-10-16T07:54:22;4.03;;;3.30;;
13319;SDS011;59599;47.608;12.190;2022-10-16T07:56:48;9.83;;;3.77;;
13319;SDS011;59599;47.608;12.190;2022-10-16T07:59:14;4.43;;;3.30;;
13319;SDS011;59599;47.608;12.190;2022-10-16T08:01:40;12.50;;;4.07;;
13319;SDS011;59599;47.608;12.190;2022-10-16T08:04:09;4.47;;;3.20;;
13319;SDS011;59599;47.608;12.190;2022-10-16T08:06:36;6.17;;;2.97;;
13319;SDS011;59599;47.608;12.190;2022-10-16T08:09:02;5.90;;;2.60;;
13319;SDS011;59599;47.608;12.190;2022-10-16T08:11:28;6.87;;;2.87;;
13319;SDS011;59599;47.608;12.190;2022-10-16T08:13:54;6.20;;;2.93;;
13319;SDS011;59599;47.608;12.190;2022-10-16T08:16:20;4.57;;;3.10;;
13319;SDS011;59599;47.608;12.190;2022-10-16T08:18:47;4.30;;;2.03;;
13319;SDS011;59599;47.608;12.190;2022-10-16T08:21:14;2.08;;;1.88;;
13319;SDS011;59599;47.608;12.190;2022-10-16T08:23:41;2.40;;;2.00;;
13319;SDS011;59599;47.608;12.190;2022-10-16T08:26:07;2.33;;;2.10;;
13319;SDS011;59599;47.608;12.190;2022-10-16T08:28:34;3.30;;;1.88;;
13319;SDS011;59599;47.608;12.190;2022-10-16T08:31:07;3.97;;;2.10;;
13319;SDS011;59599;47.608;12.190;2022-10-16T08:33:38;2.20;;;2.00;;
13319;SDS011;59599;47.608;12.190;2022-10-16T08:36:05;1.98;;;1.80;;
13319;SDS011;59599;47.608;12.190;2022-10-16T08:38:32;3.60;;;2.20;;
13319;SDS011;59599;47.608;12.190;2022-10-16T08:41:13;5.53;;;2.70;;
13319;SDS011;59599;47.608;12.190;2022-10-16T08:49:15;4.10;;;1.70;;
13319;SDS011;59599;47.608;12.190;2022-10-16T08:51:41;2.17;;;1.98;;
13319;SDS011;59599;47.608;12.190;2022-10-16T08:57:12;2.33;;;1.95;;
13319;SDS011;59599;47.608;12.190;2022-10-16T08:59:43;2.90;;;2.13;;
13319;SDS011;59599;47.608;12.190;2022-10-16T09:02:28;2.50;;;2.20;;
13319;SDS011;59599;47.608;12.190;2022-10-16T09:05:02;2.38;;;2.13;;
13319;SDS011;59599;47.608;12.190;2022-10-16T09:15:34;2.50;;;2.08;;
13319;SDS011;59599;47.608;12.190;2022-10-16T09:18:11;5.65;;;2.33;;
13319;SDS011;59599;47.608;12.190;2022-10-16T09:20:51;4.07;;;2.13;;
13319;SDS011;59599;47.608;12.190;2022-10-16T09:25:49;2.58;;;2.17;;
13319;SDS011;59599;47.608;12.190;2022-10-16T09:28:16;5.85;;;2.13;;
13319;SDS011;59599;47.608;12.190;2022-10-16T09:30:43;4.03;;;2.08;;
13319;SDS011;59599;47.608;12.190;2022-10-16T09:33:10;5.70;;;2.40;;
13319;SDS011;59599;47.608;12.190;2022-10-16T09:35:39;3.28;;;2.00;;
13319;SDS011;59599;47.608;12.190;2022-10-16T09:38:05;2.95;;;2.35;;
13319;SDS011;59599;47.608;12.190;2022-10-16T09:40:32;3.03;;;2.03;;
13319;SDS011;59599;47.608;12.190;2022-10-16T09:43:18;2.65;;;2.22;;
13319;SDS011;59599;47.608;12.190;2022-10-16T09:45:59;5.43;;;1.90;;
13319;SDS011;59599;47.608;12.190;2022-10-16T09:48:35;2.53;;;1.85;;
13319;SDS011;59599;47.608;12.190;2022-10-16T09:51:03;3.33;;;2.38;;
13319;SDS011;59599;47.608;12.190;2022-10-16T09:53:44;3.80;;;2.00;;
13319;SDS011;59599;47.608;12.190;2022-10-16T09:56:11;2.53;;;1.95;;
13319;SDS011;59599;47.608;12.190;2022-10-16T09:58:49;3.25;;;1.90;;
13319;SDS011;59599;47.608;12.190;2022-10-16T10:01:16;4.80;;;2.38;;
13319;SDS011;59599;47.608;12.190;2022-10-16T10:03:43;2.15;;;1.80;;
13319;SDS011;59599;47.608;12.190;2022-10-16T10:06:22;3.55;;;1.90;;
13319;SDS011;59599;47.608;12.190;2022-10-16T10:08:58;3.72;;;2.10;;
13319;SDS011;59599;47.608;12.190;2022-10-16T10:11:40;4.43;;;2.03;;
13319;SDS011;59599;47.608;12.190;2022-10-16T10:14:18;2.42;;;1.90;;
13319;SDS011;59599;47.608;12.190;2022-10-16T10:16:45;4.18;;;2.17;;
13319;SDS011;59599;47.608;12.190;2022-10-16T10:19:29;4.35;;;1.92;;
13319;SDS011;59599;47.608;12.190;2022-10-16T10:21:55;2.38;;;2.17;;
13319;SDS011;59599;47.608;12.190;2022-10-16T10:24:20;2.20;;;2.00;;
13319;SDS011;59599;47.608;12.190;2022-10-16T10:26:51;2.90;;;2.00;;
13319;SDS011;59599;47.608;12.190;2022-10-16T10:29:37;2.10;;;1.90;;
13319;SDS011;59599;47.608;12.190;2022-10-16T10:32:22;3.50;;;2.00;;
13319;SDS011;59599;47.608;12.190;2022-10-16T10:40:11;6.65;;;2.60;;
13319;SDS011;59599;47.608;12.190;2022-10-16T10:42:52;2.67;;;2.10;;
13319;SDS011;59599;47.608;12.190;2022-10-16T10:45:26;2.80;;;2.42;;
13319;SDS011;59599;47.608;12.190;2022-10-16T10:48:10;2.97;;;2.40;;
13319;SDS011;59599;47.608;12.190;2022-10-16T10:51:10;2.70;;;2.50;;
13319;SDS011;59599;47.608;12.190;2022-10-16T10:54:14;7.25;;;2.42;;
13319;SDS011;59599;47.608;12.190;2022-10-16T10:59:30;3.67;;;3.10;;
13319;SDS011;59599;47.608;12.190;2022-10-16T11:07:25;3.55;;;2.90;;
13319;SDS011;59599;47.608;12.190;2022-10-16T11:12:53;6.63;;;2.88;;
13319;SDS011;59599;47.608;12.190;2022-10-16T11:15:25;5.28;;;2.42;;
13319;SDS011;59599;47.608;12.190;2022-10-16T11:17:58;2.90;;;2.03;;
13319;SDS011;59599;47.608;12.190;2022-10-16T11:20:28;3.80;;;2.70;;
13319;SDS011;59599;47.608;12.190;2022-10-16T11:22:59;2.88;;;2.10;;
13319;SDS011;59599;47.608;12.190;2022-10-16T11:25:26;3.00;;;2.70;;
13319;SDS011;59599;47.608;12.190;2022-10-16T11:30:59;3.08;;;2.38;;
13319;SDS011;59599;47.608;12.190;2022-10-16T11:33:30;2.58;;;2.38;;
13319;SDS011;59599;47.608;12.190;2022-10-16T11:36:23;3.45;;;2.72;;
13319;SDS011;59599;47.608;12.190;2022-10-16T11:39:20;2.58;;;2.38;;
13319;SDS011;59599;47.608;12.190;2022-10-16T11:41:50;2.55;;;2.20;;
13319;SDS011;59599;47.608;12.190;2022-10-16T11:47:19;2.40;;;2.20;;
13319;SDS011;59599;47.608;12.190;2022-10-16T11:50:01;3.15;;;2.50;;
13319;SDS011;59599;47.608;12.190;2022-10-16T11:52:50;4.18;;;2.10;;
13319;SDS011;59599;47.608;12.190;2022-10-16T11:55:23;4.93;;;2.65;;
13319;SDS011;59599;47.608;12.190;2022-10-16T11:58:01;5.47;;;2.33;;
13319;SDS011;59599;47.608;12.190;2022-10-16T12:00:38;4.97;;;2.30;;
13319;SDS011;59599;47.608;12.190;2022-10-16T12:08:35;4.05;;;2.50;;
13319;SDS011;59599;47.608;12.190;2022-10-16T12:11:09;7.20;;;2.40;;
13319;SDS011;59599;47.608;12.190;2022-10-16T12:13:45;7.30;;;2.83;;
13319;SDS011;59599;47.608;12.190;2022-10-16T12:18:39;5.20;;;2.78;;
13319;SDS011;59599;47.608;12.190;2022-10-16T12:21:06;2.60;;;2.30;;
13319;SDS011;59599;47.608;12.190;2022-10-16T12:23:36;3.78;;;2.70;;
13319;SDS011;59599;47.608;12.190;2022-10-16T12:26:04;2.83;;;2.58;;
13319;SDS011;59599;47.608;12.190;2022-10-16T12:28:31;4.40;;;2.88;;
13319;SDS011;59599;47.608;12.190;2022-10-16T12:30:59;4.03;;;3.00;;
13319;SDS011;59599;47.608;12.190;2022-10-16T12:33:33;5.07;;;3.03;;
13319;SDS011;59599;47.608;12.190;2022-10-16T12:36:07;6.57;;;2.83;;
13319;SDS011;59599;47.608;12.190;2022-10-16T12:38:47;2.80;;;2.60;;
13319;SDS011;59599;47.608;12.190;2022-10-16T12:41:34;2.92;;;2.72;;
13319;SDS011;59599;47.608;12.190;2022-10-16T12:44:04;4.57;;;2.70;;
13319;SDS011;59599;47.608;12.190;2022-10-16T12:49:05;3.50;;;2.63;;
13319;SDS011;59599;47.608;12.190;2022-10-16T12:51:42;3.45;;;2.78;;
13319;SDS011;59599;47.608;12.190;2022-10-16T12:56:44;4.78;;;2.70;;
13319;SDS011;59599;47.608;12.190;2022-10-16T12:59:47;3.35;;;2.75;;
13319;SDS011;59599;47.608;12.190;2022-10-16T13:06:02;5.55;;;2.50;;
13319;SDS011;59599;47.608;12.190;2022-10-16T13:13:31;2.75;;;2.55;;
13319;SDS011;59599;47.608;12.190;2022-10-16T13:18:55;2.80;;;2.30;;
13319;SDS011;59599;47.608;12.190;2022-10-16T13:22:05;2.50;;;2.00;;
13319;SDS011;59599;47.608;12.190;2022-10-16T13:28:03;2.60;;;2.30;;
13319;SDS011;59599;47.608;12.190;2022-10-16T13:30:32;2.38;;;2.17;;
13319;SDS011;59599;47.608;12.190;2022-10-16T13:33:07;4.95;;;2.15;;
13319;SDS011;59599;47.608;12.190;2022-10-16T13:35:48;4.35;;;2.40;;
13319;SDS011;59599;47.608;12.190;2022-10-16T13:38:19;3.53;;;2.33;;
13319;SDS011;59599;47.608;12.190;2022-10-16T13:40:49;3.55;;;2.70;;
13319;SDS011;59599;47.608;12.190;2022-10-16T13:43:44;6.57;;;2.28;;
13319;SDS011;59599;47.608;12.190;2022-10-16T13:46:15;4.32;;;2.30;;
13319;SDS011;59599;47.608;12.190;2022-10-16T13:49:02;4.45;;;2.65;;
13319;SDS011;59599;47.608;12.190;2022-10-16T13:51:30;3.92;;;2.63;;
13319;SDS011;59599;47.608;12.190;2022-10-16T13:53:57;2.17;;;1.90;;
13319;SDS011;59599;47.608;12.190;2022-10-16T13:56:27;2.78;;;2.28;;
13319;SDS011;59599;47.608;12.190;2022-10-16T13:59:37;3.60;;;2.05;;
13319;SDS011;59599;47.608;12.190;2022-10-16T14:01:57;4.72;;;2.00;;
13319;SDS011;59599;47.608;12.190;2022-10-16T14:04:24;4.40;;;2.20;;
13319;SDS011;59599;47.608;12.190;2022-10-16T14:06:56;3.28;;;2.10;;
13319;SDS011;59599;47.608;12.190;2022-10-16T14:09:25;2.15;;;1.95;;
13319;SDS011;59599;47.608;12.190;2022-10-16T14:11:56;3.58;;;2.58;;
13319;SDS011;59599;47.608;12.190;2022-10-16T14:14:25;5.30;;;2.65;;
13319;SDS011;59599;47.608;12.190;2022-10-16T14:16:56;2.80;;;2.53;;
13319;SDS011;59599;47.608;12.190;2022-10-16T14:19:23;3.15;;;2.55;;
13319;SDS011;59599;47.608;12.190;2022-10-16T14:21:52;2.40;;;2.20;;
13319;SDS011;59599;47.608;12.190;2022-10-16T14:24:24;2.95;;;2.03;;
13319;SDS011;59599;47.608;12.190;2022-10-16T14:26:50;7.85;;;2.20;;
13319;SDS011;59599;47.608;12.190;2022-10-16T14:29:19;4.03;;;2.20;;
13319;SDS011;59599;47.608;12.190;2022-10-16T14:31:59;4.72;;;2.20;;
13319;SDS011;59599;47.608;12.190;2022-10-16T14:34:36;2.45;;;1.75;;
13319;SDS011;59599;47.608;12.190;2022-10-16T14:37:23;3.00;;;2.00;;
13319;SDS011;59599;47.608;12.190;2022-10-16T14:39:50;8.82;;;2.10;;
13319;SDS011;59599;47.608;12.190;2022-10-16T14:42:17;1.92;;;1.80;;
13319;SDS011;59599;47.608;12.190;2022-10-16T14:44:44;3.65;;;1.90;;
13319;SDS011;59599;47.608;12.190;2022-10-16T14:47:15;3.97;;;1.80;;
13319;SDS011;59599;47.608;12.190;2022-10-16T14:49:47;5.82;;;3.13;;
13319;SDS011;59599;47.608;12.190;2022-10-16T14:52:13;3.58;;;2.70;;
13319;SDS011;59599;47.608;12.190;2022-10-16T14:54:39;6.18;;;2.97;;
13319;SDS011;59599;47.608;12.190;2022-10-16T14:57:05;3.38;;;3.08;;
13319;SDS011;59599;47.608;12.190;2022-10-16T15:02:18;5.43;;;2.30;;
13319;SDS011;59599;47.608;12.190;2022-10-16T15:04:45;4.88;;;3.40;;
13319;SDS011;59599;47.608;12.190;2022-10-16T15:07:12;14.43;;;4.30;;
13319;SDS011;59599;47.608;12.190;2022-10-16T15:09:37;8.18;;;3.38;;
13319;SDS011;59599;47.608;12.190;2022-10-16T15:12:04;7.63;;;3.20;;
13319;SDS011;59599;47.608;12.190;2022-10-16T15:14:30;6.10;;;3.92;;
13319;SDS011;59599;47.608;12.190;2022-10-16T15:16:56;5.93;;;4.40;;
13319;SDS011;59599;47.608;12.190;2022-10-16T15:19:22;6.78;;;4.95;;
13319;SDS011;59599;47.608;12.190;2022-10-16T15:21:48;7.55;;;3.17;;
13319;SDS011;59599;47.608;12.190;2022-10-16T15:24:14;6.03;;;2.65;;
13319;SDS011;59599;47.608;12.190;2022-10-16T15:26:40;9.65;;;2.33;;
13319;SDS011;59599;47.608;12.190;2022-10-16T15:29:06;7.88;;;3.03;;
13319;SDS011;59599;47.608;12.190;2022-10-16T15:31:33;8.13;;;3.17;;
13319;SDS011;59599;47.608;12.190;2022-10-16T15:33:59;5.10;;;2.70;;
13319;SDS011;59599;47.608;12.190;2022-10-16T15:36:30;5.40;;;2.65;;
13319;SDS011;59599;47.608;12.190;2022-10-16T15:38:58;8.55;;;3.15;;
13319;SDS011;59599;47.608;12.190;2022-10-16T15:41:24;13.07;;;3.00;;
13319;SDS011;59599;47.608;12.190;2022-10-16T15:43:50;10.98;;;3.20;;
13319;SDS011;59599;47.608;12.190;2022-10-16T15:46:20;4.80;;;2.78;;
13319;SDS011;59599;47.608;12.190;2022-10-16T15:48:47;6.22;;;3.15;;
13319;SDS011;59599;47.608;12.190;2022-10-16T15:51:14;3.53;;;2.55;;
13319;SDS011;59599;47.608;12.190;2022-10-16T15:53:40;5.20;;;2.50;;
13319;SDS011;59599;47.608;12.190;2022-10-16T15:56:06;4.65;;;2.53;;
13319;SDS011;59599;47.608;12.190;2022-10-16T15:58:33;5.65;;;2.72;;
13319;SDS011;59599;47.608;12.190;2022-10-16T16:01:00;6.38;;;3.20;;
13319;SDS011;59599;47.608;12.190;2022-10-16T16:03:27;6.07;;;2.40;;
13319;SDS011;59599;47.608;12.190;2022-10-16T16:05:53;3.15;;;2.85;;
13319;SDS011;59599;47.608;12.190;2022-10-16T16:08:19;4.55;;;3.00;;
13319;SDS011;59599;47.608;12.190;2022-10-16T16:10:45;4.32;;;2.70;;
13319;SDS011;59599;47.608;12.190;2022-10-16T16:13:11;7.80;;;3.08;;
13319;SDS011;59599;47.608;12.190;2022-10-16T16:15:40;5.18;;;2.40;;
13319;SDS011;59599;47.608;12.190;2022-10-16T16:18:06;8.57;;;2.50;;
13319;SDS011;59599;47.608;12.190;2022-10-16T16:20:34;4.57;;;2.33;;
13319;SDS011;59599;47.608;12.190;2022-10-16T16:23:00;9.98;;;2.47;;
13319;SDS011;59599;47.608;12.190;2022-10-16T16:25:26;4.38;;;2.78;;
13319;SDS011;59599;47.608;12.190;2022-10-16T16:27:52;5.38;;;2.85;;
13319;SDS011;59599;47.608;12.190;2022-10-16T16:30:18;9.13;;;3.35;;
13319;SDS011;59599;47.608;12.190;2022-10-16T16:32:45;7.28;;;2.40;;
13319;SDS011;59599;47.608;12.190;2022-10-16T16:35:12;5.97;;;2.60;;
13319;SDS011;59599;47.608;12.190;2022-10-16T16:37:37;12.65;;;2.13;;
13319;SDS011;59599;47.608;12.190;2022-10-16T16:40:03;3.58;;;2.17;;
13319;SDS011;59599;47.608;12.190;2022-10-16T16:42:29;6.47;;;2.60;;
13319;SDS011;59599;47.608;12.190;2022-10-16T16:44:54;14.68;;;3.20;;
13319;SDS011;59599;47.608;12.190;2022-10-16T16:47:20;8.20;;;3.13;;
13319;SDS011;59599;47.608;12.190;2022-10-16T16:49:46;5.50;;;3.00;;
13319;SDS011;59599;47.608;12.190;2022-10-16T16:52:13;7.22;;;2.70;;
13319;SDS011;59599;47.608;12.190;2022-10-16T16:54:39;2.55;;;2.05;;
13319;SDS011;59599;47.608;12.190;2022-10-16T16:57:05;5.45;;;2.10;;
13319;SDS011;59599;47.608;12.190;2022-10-16T16:59:31;2.88;;;1.70;;
13319;SDS011;59599;47.608;12.190;2022-10-16T17:01:59;5.57;;;2.03;;
13319;SDS011;59599;47.608;12.190;2022-10-16T17:04:25;11.18;;;2.95;;
13319;SDS011;59599;47.608;12.190;2022-10-16T17:06:55;6.28;;;3.67;;
13319;SDS011;59599;47.608;12.190;2022-10-16T17:09:21;3.20;;;2.90;;
13319;SDS011;59599;47.608;12.190;2022-10-16T17:11:47;7.15;;;3.67;;
13319;SDS011;59599;47.608;12.190;2022-10-16T17:14:13;9.40;;;4.07;;
13319;SDS011;59599;47.608;12.190;2022-10-16T17:16:39;10.02;;;4.18;;
13319;SDS011;59599;47.608;12.190;2022-10-16T17:19:10;19.02;;;4.10;;
13319;SDS011;59599;47.608;12.190;2022-10-16T17:21:39;7.07;;;3.38;;
13319;SDS011;59599;47.608;12.190;2022-10-16T17:24:05;6.80;;;3.15;;
13319;SDS011;59599;47.608;12.190;2022-10-16T17:26:31;4.88;;;2.75;;
13319;SDS011;59599;47.608;12.190;2022-10-16T17:28:58;7.93;;;2.67;;
13319;SDS011;59599;47.608;12.190;2022-10-16T17:31:29;11.32;;;2.70;;
13319;SDS011;59599;47.608;12.190;2022-10-16T17:33:55;4.65;;;3.00;;
13319;SDS011;59599;47.608;12.190;2022-10-16T17:36:22;7.03;;;3.08;;
13319;SDS011;59599;47.608;12.190;2022-10-16T17:38:48;11.35;;;3.38;;
13319;SDS011;59599;47.608;12.190;2022-10-16T17:41:16;10.80;;;3.13;;
13319;SDS011;59599;47.608;12.190;2022-10-16T17:43:42;8.88;;;3.58;;
13319;SDS011;59599;47.608;12.190;2022-10-16T17:46:09;9.43;;;3.63;;
13319;SDS011;59599;47.608;12.190;2022-10-16T17:48:42;12.10;;;4.45;;
13319;SDS011;59599;47.608;12.190;2022-10-16T17:51:09;12.85;;;4.13;;
13319;SDS011;59599;47.608;12.190;2022-10-16T17:53:37;7.03;;;3.42;;
13319;SDS011;59599;47.608;12.190;2022-10-16T17:58:29;8.07;;;3.08;;
13319;SDS011;59599;47.608;12.190;2022-10-16T18:00:55;6.10;;;2.63;;
13319;SDS011;59599;47.608;12.190;2022-10-16T18:03:21;11.50;;;2.90;;
13319;SDS011;59599;47.608;12.190;2022-10-16T18:05:47;9.38;;;3.42;;
13319;SDS011;59599;47.608;12.190;2022-10-16T18:08:13;7.63;;;3.05;;
13319;SDS011;59599;47.608;12.190;2022-10-16T18:10:46;5.45;;;3.30;;
13319;SDS011;59599;47.608;12.190;2022-10-16T18:13:12;5.40;;;3.25;;
13319;SDS011;59599;47.608;12.190;2022-10-16T18:15:38;4.47;;;2.88;;
13319;SDS011;59599;47.608;12.190;2022-10-16T18:18:04;15.98;;;3.45;;
13319;SDS011;59599;47.608;12.190;2022-10-16T18:20:30;10.48;;;3.00;;
13319;SDS011;59599;47.608;12.190;2022-10-16T18:22:56;4.78;;;2.85;;
13319;SDS011;59599;47.608;12.190;2022-10-16T18:25:22;13.35;;;4.43;;
13319;SDS011;59599;47.608;12.190;2022-10-16T18:27:48;4.47;;;3.60;;
13319;SDS011;59599;47.608;12.190;2022-10-16T18:30:14;10.45;;;3.00;;
13319;SDS011;59599;47.608;12.190;2022-10-16T18:32:40;10.13;;;2.90;;
13319;SDS011;59599;47.608;12.190;2022-10-16T18:35:06;5.88;;;3.60;;
13319;SDS011;59599;47.608;12.190;2022-10-16T18:37:33;5.07;;;3.30;;
13319;SDS011;59599;47.608;12.190;2022-10-16T18:40:00;4.60;;;2.97;;
13319;SDS011;59599;47.608;12.190;2022-10-16T18:42:26;9.35;;;3.85;;
13319;SDS011;59599;47.608;12.190;2022-10-16T18:44:52;8.30;;;3.67;;
13319;SDS011;59599;47.608;12.190;2022-10-16T18:47:18;9.65;;;3.72;;
13319;SDS011;59599;47.608;12.190;2022-10-16T18:49:43;10.20;;;4.47;;
13319;SDS011;59599;47.608;12.190;2022-10-16T18:52:12;9.60;;;3.70;;
13319;SDS011;59599;47.608;12.190;2022-10-16T18:54:38;7.15;;;4.15;;
13319;SDS011;59599;47.608;12.190;2022-10-16T18:57:03;10.20;;;3.97;;
13319;SDS011;59599;47.608;12.190;2022-10-16T18:59:29;9.38;;;3.72;;
13319;SDS011;59599;47.608;12.190;2022-10-16T19:01:55;7.80;;;3.55;;
13319;SDS011;59599;47.608;12.190;2022-10-16T19:04:21;8.02;;;3.45;;
13319;SDS011;59599;47.608;12.190;2022-10-16T19:06:48;8.40;;;3.15;;
13319;SDS011;59599;47.608;12.190;2022-10-16T19:09:17;4.53;;;2.38;;
13319;SDS011;59599;47.608;12.190;2022-10-16T19:11:43;9.88;;;3.63;;
13319;SDS011;59599;47.608;12.190;2022-10-16T19:14:09;11.65;;;5.63;;
13319;SDS011;59599;47.608;12.190;2022-10-16T19:16:36;7.13;;;3.67;;
13319;SDS011;59599;47.608;12.190;2022-10-16T19:19:03;12.70;;;3.17;;
13319;SDS011;59599;47.608;12.190;2022-10-16T19:21:33;7.95;;;2.90;;
13319;SDS011;59599;47.608;12.190;2022-10-16T19:24:00;8.88;;;3.38;;
13319;SDS011;59599;47.608;12.190;2022-10-16T19:26:26;10.38;;;3.47;;
13319;SDS011;59599;47.608;12.190;2022-10-16T19:28:53;8.55;;;3.00;;
13319;SDS011;59599;47.608;12.190;2022-10-16T19:31:20;6.88;;;2.88;;
13319;SDS011;59599;47.608;12.190;2022-10-16T19:33:50;16.02;;;3.78;;
13319;SDS011;59599;47.608;12.190;2022-10-16T19:36:17;15.50;;;3.85;;
13319;SDS011;59599;47.608;12.190;2022-10-16T19:38:45;8.68;;;3.47;;
13319;SDS011;59599;47.608;12.190;2022-10-16T19:41:12;7.10;;;3.42;;
13319;SDS011;59599;47.608;12.190;2022-10-16T19:43:39;12.20;;;4.32;;
13319;SDS011;59599;47.608;12.190;2022-10-16T19:46:06;10.07;;;4.60;;
13319;SDS011;59599;47.608;12.190;2022-10-16T19:48:40;9.75;;;5.63;;
13319;SDS011;59599;47.608;12.190;2022-10-16T19:51:06;14.75;;;5.18;;
13319;SDS011;59599;47.608;12.190;2022-10-16T19:53:35;12.75;;;4.35;;
13319;SDS011;59599;47.608;12.190;2022-10-16T19:56:04;7.03;;;3.80;;
13319;SDS011;59599;47.608;12.190;2022-10-16T19:58:39;7.10;;;3.78;;
13319;SDS011;59599;47.608;12.190;2022-10-16T20:01:05;15.50;;;3.97;;